sensor_id;sensor_type;location;lat;lon;timestamp;P1;durP1;ratioP1;P2;durP2;ratioP2
25511;SDS011;13414;44.534;18.700;2023-07-09T00:02:12;23.58;;;21.08;;
25511;SDS011;13414;44.534;18.700;2023-07-09T00:04:40;27.70;;;24.70;;
25511;SDS011;13414;44.534;18.700;2023-07-09T00:07:27;26.67;;;23.90;;
25511;SDS011;13414;44.534;18.700;2023-07-09T00:09:56;27.63;;;24.52;;
25511;SDS011;13414;44.534;18.700;2023-07-09T00:12:25;22.23;;;18.95;;
25511;SDS011;13414;44.534;18.700;2023-07-09T00:14:53;23.63;;;18.17;;
25511;SDS011;13414;44.534;18.700;2023-07-09T00:17:25;17.98;;;13.85;;
25511;SDS011;13414;44.534;18.700;2023-07-09T00:19:54;18.17;;;13.52;;
25511;SDS011;13414;44.534;18.700;2023-07-09T00:22:24;16.40;;;14.57;;
25511;SDS011;13414;44.534;18.700;2023-07-09T00:24:52;24.02;;;18.35;;
25511;SDS011;13414;44.534;18.700;2023-07-09T00:27:23;17.13;;;14.10;;
25511;SDS011;13414;44.534;18.700;2023-07-09T00:29:55;15.43;;;12.75;;
25511;SDS011;13414;44.534;18.700;2023-07-09T00:32:22;16.40;;;11.90;;
25511;SDS011;13414;44.534;18.700;2023-07-09T00:34:50;16.08;;;11.13;;
25511;SDS011;13414;44.534;18.700;2023-07-09T00:37:21;13.98;;;10.30;;
25511;SDS011;13414;44.534;18.700;2023-07-09T00:39:52;12.77;;;9.48;;
25511;SDS011;13414;44.534;18.700;2023-07-09T00:42:20;15.07;;;8.90;;
25511;SDS011;13414;44.534;18.700;2023-07-09T00:44:50;11.93;;;7.88;;
25511;SDS011;13414;44.534;18.700;2023-07-09T00:47:26;10.13;;;7.57;;
25511;SDS011;13414;44.534;18.700;2023-07-09T00:50:11;13.00;;;8.77;;
25511;SDS011;13414;44.534;18.700;2023-07-09T00:52:51;15.45;;;9.30;;
25511;SDS011;13414;44.534;18.700;2023-07-09T00:55:23;10.98;;;8.13;;
25511;SDS011;13414;44.534;18.700;2023-07-09T00:57:57;13.45;;;8.88;;
25511;SDS011;13414;44.534;18.700;2023-07-09T01:00:30;10.98;;;7.70;;
25511;SDS011;13414;44.534;18.700;2023-07-09T01:03:09;14.00;;;7.65;;
25511;SDS011;13414;44.534;18.700;2023-07-09T01:05:38;12.45;;;8.27;;
25511;SDS011;13414;44.534;18.700;2023-07-09T01:08:08;10.70;;;8.18;;
25511;SDS011;13414;44.534;18.700;2023-07-09T01:10:37;12.38;;;9.13;;
25511;SDS011;13414;44.534;18.700;2023-07-09T01:13:06;9.43;;;7.22;;
25511;SDS011;13414;44.534;18.700;2023-07-09T01:15:34;11.68;;;7.40;;
25511;SDS011;13414;44.534;18.700;2023-07-09T01:18:03;14.35;;;7.40;;
25511;SDS011;13414;44.534;18.700;2023-07-09T01:20:30;12.60;;;7.50;;
25511;SDS011;13414;44.534;18.700;2023-07-09T01:23:00;10.48;;;7.57;;
25511;SDS011;13414;44.534;18.700;2023-07-09T01:25:27;11.25;;;8.02;;
25511;SDS011;13414;44.534;18.700;2023-07-09T01:27:55;12.48;;;7.35;;
25511;SDS011;13414;44.534;18.700;2023-07-09T01:30:30;11.55;;;8.32;;
25511;SDS011;13414;44.534;18.700;2023-07-09T01:33:00;9.68;;;7.88;;
25511;SDS011;13414;44.534;18.700;2023-07-09T01:35:29;10.60;;;7.32;;
25511;SDS011;13414;44.534;18.700;2023-07-09T01:37:58;10.57;;;7.68;;
25511;SDS011;13414;44.534;18.700;2023-07-09T01:40:27;12.13;;;7.25;;
25511;SDS011;13414;44.534;18.700;2023-07-09T01:42:56;10.40;;;7.13;;
25511;SDS011;13414;44.534;18.700;2023-07-09T01:45:26;11.63;;;6.82;;
25511;SDS011;13414;44.534;18.700;2023-07-09T01:47:54;10.07;;;6.82;;
25511;SDS011;13414;44.534;18.700;2023-07-09T01:50:22;9.27;;;7.15;;
25511;SDS011;13414;44.534;18.700;2023-07-09T01:52:50;11.25;;;6.82;;
25511;SDS011;13414;44.534;18.700;2023-07-09T01:55:20;8.45;;;6.40;;
25511;SDS011;13414;44.534;18.700;2023-07-09T01:57:47;12.05;;;7.63;;
25511;SDS011;13414;44.534;18.700;2023-07-09T02:00:17;9.68;;;6.30;;
25511;SDS011;13414;44.534;18.700;2023-07-09T02:02:47;9.27;;;6.78;;
25511;SDS011;13414;44.534;18.700;2023-07-09T02:05:16;13.55;;;7.65;;
25511;SDS011;13414;44.534;18.700;2023-07-09T02:07:44;9.88;;;7.40;;
25511;SDS011;13414;44.534;18.700;2023-07-09T02:10:13;12.10;;;7.40;;
25511;SDS011;13414;44.534;18.700;2023-07-09T02:12:43;10.73;;;7.85;;
25511;SDS011;13414;44.534;18.700;2023-07-09T02:15:11;9.25;;;6.65;;
25511;SDS011;13414;44.534;18.700;2023-07-09T02:17:39;10.35;;;7.10;;
25511;SDS011;13414;44.534;18.700;2023-07-09T02:20:07;13.00;;;7.32;;
25511;SDS011;13414;44.534;18.700;2023-07-09T02:22:36;8.77;;;7.32;;
25511;SDS011;13414;44.534;18.700;2023-07-09T02:25:05;9.32;;;6.72;;
25511;SDS011;13414;44.534;18.700;2023-07-09T02:27:34;10.07;;;7.05;;
25511;SDS011;13414;44.534;18.700;2023-07-09T02:30:04;9.38;;;7.13;;
25511;SDS011;13414;44.534;18.700;2023-07-09T02:32:33;8.02;;;6.55;;
25511;SDS011;13414;44.534;18.700;2023-07-09T02:35:00;9.57;;;7.00;;
25511;SDS011;13414;44.534;18.700;2023-07-09T02:37:28;11.10;;;6.18;;
25511;SDS011;13414;44.534;18.700;2023-07-09T02:39:56;8.00;;;6.55;;
25511;SDS011;13414;44.534;18.700;2023-07-09T02:42:24;7.55;;;6.35;;
25511;SDS011;13414;44.534;18.700;2023-07-09T02:44:52;10.57;;;7.18;;
25511;SDS011;13414;44.534;18.700;2023-07-09T02:47:24;9.95;;;7.40;;
25511;SDS011;13414;44.534;18.700;2023-07-09T02:49:53;11.50;;;7.13;;
25511;SDS011;13414;44.534;18.700;2023-07-09T02:52:20;10.25;;;7.93;;
25511;SDS011;13414;44.534;18.700;2023-07-09T02:54:48;11.45;;;6.88;;
25511;SDS011;13414;44.534;18.700;2023-07-09T02:57:16;8.60;;;7.18;;
25511;SDS011;13414;44.534;18.700;2023-07-09T02:59:43;9.82;;;6.85;;
25511;SDS011;13414;44.534;18.700;2023-07-09T03:02:11;11.13;;;7.18;;
25511;SDS011;13414;44.534;18.700;2023-07-09T03:04:40;11.80;;;6.45;;
25511;SDS011;13414;44.534;18.700;2023-07-09T03:07:07;8.15;;;6.47;;
25511;SDS011;13414;44.534;18.700;2023-07-09T03:09:35;10.52;;;6.93;;
25511;SDS011;13414;44.534;18.700;2023-07-09T03:12:03;11.90;;;6.80;;
25511;SDS011;13414;44.534;18.700;2023-07-09T03:14:31;10.57;;;6.68;;
25511;SDS011;13414;44.534;18.700;2023-07-09T03:16:59;10.73;;;6.57;;
25511;SDS011;13414;44.534;18.700;2023-07-09T03:19:27;11.80;;;6.60;;
25511;SDS011;13414;44.534;18.700;2023-07-09T03:21:56;11.15;;;6.80;;
25511;SDS011;13414;44.534;18.700;2023-07-09T03:24:24;12.10;;;7.25;;
25511;SDS011;13414;44.534;18.700;2023-07-09T03:26:51;11.48;;;7.10;;
25511;SDS011;13414;44.534;18.700;2023-07-09T03:29:19;11.45;;;7.32;;
25511;SDS011;13414;44.534;18.700;2023-07-09T03:31:46;10.75;;;7.03;;
25511;SDS011;13414;44.534;18.700;2023-07-09T03:34:14;13.52;;;6.88;;
25511;SDS011;13414;44.534;18.700;2023-07-09T03:36:42;10.10;;;6.55;;
25511;SDS011;13414;44.534;18.700;2023-07-09T03:39:12;10.13;;;7.20;;
25511;SDS011;13414;44.534;18.700;2023-07-09T03:41:39;9.00;;;7.00;;
25511;SDS011;13414;44.534;18.700;2023-07-09T03:44:07;10.60;;;7.30;;
25511;SDS011;13414;44.534;18.700;2023-07-09T03:46:34;10.60;;;6.75;;
25511;SDS011;13414;44.534;18.700;2023-07-09T03:49:02;11.18;;;6.63;;
25511;SDS011;13414;44.534;18.700;2023-07-09T03:51:29;8.52;;;6.40;;
25511;SDS011;13414;44.534;18.700;2023-07-09T03:53:57;9.23;;;6.55;;
25511;SDS011;13414;44.534;18.700;2023-07-09T03:56:25;12.18;;;6.97;;
25511;SDS011;13414;44.534;18.700;2023-07-09T03:58:55;7.97;;;6.90;;
25511;SDS011;13414;44.534;18.700;2023-07-09T04:01:22;8.13;;;5.63;;
25511;SDS011;13414;44.534;18.700;2023-07-09T04:03:50;9.30;;;5.63;;
25511;SDS011;13414;44.534;18.700;2023-07-09T04:06:17;9.98;;;5.47;;
25511;SDS011;13414;44.534;18.700;2023-07-09T04:08:45;11.23;;;5.57;;
25511;SDS011;13414;44.534;18.700;2023-07-09T04:11:12;9.68;;;5.60;;
25511;SDS011;13414;44.534;18.700;2023-07-09T04:13:41;9.25;;;5.47;;
25511;SDS011;13414;44.534;18.700;2023-07-09T04:16:09;11.07;;;5.32;;
25511;SDS011;13414;44.534;18.700;2023-07-09T04:18:37;11.57;;;6.13;;
25511;SDS011;13414;44.534;18.700;2023-07-09T04:21:04;9.02;;;5.30;;
25511;SDS011;13414;44.534;18.700;2023-07-09T04:23:42;10.55;;;5.18;;
25511;SDS011;13414;44.534;18.700;2023-07-09T04:26:09;6.50;;;4.90;;
25511;SDS011;13414;44.534;18.700;2023-07-09T04:28:40;8.43;;;4.93;;
25511;SDS011;13414;44.534;18.700;2023-07-09T04:31:07;7.80;;;4.95;;
25511;SDS011;13414;44.534;18.700;2023-07-09T04:33:35;7.05;;;5.07;;
25511;SDS011;13414;44.534;18.700;2023-07-09T04:36:02;7.22;;;4.80;;
25511;SDS011;13414;44.534;18.700;2023-07-09T04:38:31;8.45;;;5.35;;
25511;SDS011;13414;44.534;18.700;2023-07-09T04:41:01;7.18;;;5.20;;
25511;SDS011;13414;44.534;18.700;2023-07-09T04:43:28;7.95;;;5.05;;
25511;SDS011;13414;44.534;18.700;2023-07-09T04:45:57;7.13;;;4.63;;
25511;SDS011;13414;44.534;18.700;2023-07-09T04:48:24;7.78;;;5.60;;
25511;SDS011;13414;44.534;18.700;2023-07-09T04:50:52;7.30;;;5.30;;
25511;SDS011;13414;44.534;18.700;2023-07-09T04:53:19;9.07;;;5.05;;
25511;SDS011;13414;44.534;18.700;2023-07-09T04:55:50;8.55;;;5.45;;
25511;SDS011;13414;44.534;18.700;2023-07-09T04:58:19;8.80;;;5.68;;
25511;SDS011;13414;44.534;18.700;2023-07-09T05:00:46;8.10;;;5.53;;
25511;SDS011;13414;44.534;18.700;2023-07-09T05:03:15;8.52;;;6.03;;
25511;SDS011;13414;44.534;18.700;2023-07-09T05:05:46;6.93;;;5.45;;
25511;SDS011;13414;44.534;18.700;2023-07-09T05:08:14;11.20;;;6.05;;
25511;SDS011;13414;44.534;18.700;2023-07-09T05:10:42;9.65;;;5.93;;
25511;SDS011;13414;44.534;18.700;2023-07-09T05:13:09;9.98;;;6.53;;
25511;SDS011;13414;44.534;18.700;2023-07-09T05:15:41;8.23;;;5.95;;
25511;SDS011;13414;44.534;18.700;2023-07-09T05:18:09;10.70;;;7.57;;
25511;SDS011;13414;44.534;18.700;2023-07-09T05:20:37;10.43;;;7.05;;
25511;SDS011;13414;44.534;18.700;2023-07-09T05:23:06;10.23;;;6.95;;
25511;SDS011;13414;44.534;18.700;2023-07-09T05:25:36;10.20;;;6.10;;
25511;SDS011;13414;44.534;18.700;2023-07-09T05:28:03;9.90;;;6.97;;
25511;SDS011;13414;44.534;18.700;2023-07-09T05:30:32;8.90;;;6.50;;
25511;SDS011;13414;44.534;18.700;2023-07-09T05:33:01;8.85;;;7.28;;
25511;SDS011;13414;44.534;18.700;2023-07-09T05:35:29;8.90;;;7.53;;
25511;SDS011;13414;44.534;18.700;2023-07-09T05:37:56;8.25;;;6.70;;
25511;SDS011;13414;44.534;18.700;2023-07-09T05:40:24;10.90;;;7.45;;
25511;SDS011;13414;44.534;18.700;2023-07-09T05:42:51;8.10;;;7.10;;
25511;SDS011;13414;44.534;18.700;2023-07-09T05:45:19;8.65;;;6.55;;
25511;SDS011;13414;44.534;18.700;2023-07-09T05:47:46;10.55;;;7.38;;
25511;SDS011;13414;44.534;18.700;2023-07-09T05:50:15;9.90;;;6.85;;
25511;SDS011;13414;44.534;18.700;2023-07-09T05:52:42;10.05;;;7.10;;
25511;SDS011;13414;44.534;18.700;2023-07-09T05:55:11;10.02;;;8.68;;
25511;SDS011;13414;44.534;18.700;2023-07-09T05:57:38;9.10;;;6.78;;
25511;SDS011;13414;44.534;18.700;2023-07-09T06:00:06;8.57;;;6.50;;
25511;SDS011;13414;44.534;18.700;2023-07-09T06:02:41;10.20;;;6.90;;
25511;SDS011;13414;44.534;18.700;2023-07-09T06:05:09;9.27;;;6.88;;
25511;SDS011;13414;44.534;18.700;2023-07-09T06:07:37;8.73;;;6.60;;
25511;SDS011;13414;44.534;18.700;2023-07-09T06:10:06;8.30;;;6.93;;
25511;SDS011;13414;44.534;18.700;2023-07-09T06:12:34;8.90;;;6.90;;
25511;SDS011;13414;44.534;18.700;2023-07-09T06:15:02;10.77;;;7.28;;
25511;SDS011;13414;44.534;18.700;2023-07-09T06:17:30;14.82;;;7.72;;
25511;SDS011;13414;44.534;18.700;2023-07-09T06:19:58;9.02;;;6.60;;
25511;SDS011;13414;44.534;18.700;2023-07-09T06:22:25;8.70;;;6.65;;
25511;SDS011;13414;44.534;18.700;2023-07-09T06:24:55;9.13;;;7.20;;
25511;SDS011;13414;44.534;18.700;2023-07-09T06:27:22;10.13;;;7.07;;
25511;SDS011;13414;44.534;18.700;2023-07-09T06:29:50;9.63;;;7.55;;
25511;SDS011;13414;44.534;18.700;2023-07-09T06:32:17;10.73;;;7.53;;
25511;SDS011;13414;44.534;18.700;2023-07-09T06:34:45;11.60;;;6.90;;
25511;SDS011;13414;44.534;18.700;2023-07-09T06:37:12;10.40;;;7.18;;
25511;SDS011;13414;44.534;18.700;2023-07-09T06:39:40;11.60;;;8.48;;
25511;SDS011;13414;44.534;18.700;2023-07-09T06:42:09;9.45;;;7.28;;
25511;SDS011;13414;44.534;18.700;2023-07-09T06:45:00;12.38;;;7.18;;
25511;SDS011;13414;44.534;18.700;2023-07-09T06:47:29;10.50;;;7.90;;
25511;SDS011;13414;44.534;18.700;2023-07-09T06:49:57;11.88;;;7.28;;
25511;SDS011;13414;44.534;18.700;2023-07-09T06:52:24;11.68;;;8.23;;
25511;SDS011;13414;44.534;18.700;2023-07-09T06:54:52;10.80;;;7.20;;
25511;SDS011;13414;44.534;18.700;2023-07-09T06:57:21;9.90;;;8.18;;
25511;SDS011;13414;44.534;18.700;2023-07-09T06:59:48;11.68;;;8.13;;
25511;SDS011;13414;44.534;18.700;2023-07-09T07:02:15;12.95;;;9.02;;
25511;SDS011;13414;44.534;18.700;2023-07-09T07:04:43;16.73;;;9.85;;
25511;SDS011;13414;44.534;18.700;2023-07-09T07:07:11;10.98;;;8.65;;
25511;SDS011;13414;44.534;18.700;2023-07-09T07:09:39;15.82;;;10.70;;
25511;SDS011;13414;44.534;18.700;2023-07-09T07:12:06;14.52;;;10.52;;
25511;SDS011;13414;44.534;18.700;2023-07-09T07:14:36;13.98;;;9.15;;
25511;SDS011;13414;44.534;18.700;2023-07-09T07:17:03;12.40;;;11.05;;
25511;SDS011;13414;44.534;18.700;2023-07-09T07:19:31;10.73;;;8.80;;
25511;SDS011;13414;44.534;18.700;2023-07-09T07:21:58;12.15;;;8.70;;
25511;SDS011;13414;44.534;18.700;2023-07-09T07:24:26;12.30;;;8.55;;
25511;SDS011;13414;44.534;18.700;2023-07-09T07:26:53;12.45;;;9.25;;
25511;SDS011;13414;44.534;18.700;2023-07-09T07:29:21;12.23;;;8.38;;
25511;SDS011;13414;44.534;18.700;2023-07-09T07:31:50;9.55;;;8.27;;
25511;SDS011;13414;44.534;18.700;2023-07-09T07:34:19;11.68;;;8.70;;
25511;SDS011;13414;44.534;18.700;2023-07-09T07:36:47;11.73;;;8.40;;
25511;SDS011;13414;44.534;18.700;2023-07-09T07:39:16;15.10;;;8.95;;
25511;SDS011;13414;44.534;18.700;2023-07-09T07:41:43;15.95;;;9.63;;
25511;SDS011;13414;44.534;18.700;2023-07-09T07:44:11;16.77;;;8.32;;
25511;SDS011;13414;44.534;18.700;2023-07-09T07:46:39;12.95;;;8.68;;
25511;SDS011;13414;44.534;18.700;2023-07-09T07:49:08;11.43;;;8.27;;
25511;SDS011;13414;44.534;18.700;2023-07-09T07:51:36;12.70;;;8.50;;
25511;SDS011;13414;44.534;18.700;2023-07-09T07:54:03;12.57;;;9.60;;
25511;SDS011;13414;44.534;18.700;2023-07-09T07:56:34;15.70;;;9.18;;
25511;SDS011;13414;44.534;18.700;2023-07-09T07:59:01;9.68;;;8.45;;
25511;SDS011;13414;44.534;18.700;2023-07-09T08:01:29;13.65;;;8.88;;
25511;SDS011;13414;44.534;18.700;2023-07-09T08:03:56;12.07;;;9.07;;
25511;SDS011;13414;44.534;18.700;2023-07-09T08:06:25;22.63;;;9.23;;
25511;SDS011;13414;44.534;18.700;2023-07-09T08:08:53;15.43;;;9.57;;
25511;SDS011;13414;44.534;18.700;2023-07-09T08:11:20;12.70;;;9.35;;
25511;SDS011;13414;44.534;18.700;2023-07-09T08:13:48;13.30;;;10.00;;
25511;SDS011;13414;44.534;18.700;2023-07-09T08:16:15;13.02;;;10.02;;
25511;SDS011;13414;44.534;18.700;2023-07-09T08:18:43;10.43;;;8.57;;
25511;SDS011;13414;44.534;18.700;2023-07-09T08:21:11;14.00;;;10.32;;
25511;SDS011;13414;44.534;18.700;2023-07-09T08:23:40;11.60;;;8.20;;
25511;SDS011;13414;44.534;18.700;2023-07-09T08:26:07;11.35;;;8.10;;
25511;SDS011;13414;44.534;18.700;2023-07-09T08:28:35;11.05;;;7.32;;
25511;SDS011;13414;44.534;18.700;2023-07-09T08:31:02;11.75;;;7.72;;
25511;SDS011;13414;44.534;18.700;2023-07-09T08:33:30;9.18;;;7.75;;
25511;SDS011;13414;44.534;18.700;2023-07-09T08:35:57;12.75;;;8.02;;
25511;SDS011;13414;44.534;18.700;2023-07-09T08:38:25;10.52;;;7.55;;
25511;SDS011;13414;44.534;18.700;2023-07-09T08:40:56;12.73;;;8.18;;
25511;SDS011;13414;44.534;18.700;2023-07-09T08:43:29;11.10;;;7.15;;
25511;SDS011;13414;44.534;18.700;2023-07-09T08:46:16;10.30;;;6.07;;
25511;SDS011;13414;44.534;18.700;2023-07-09T08:48:46;7.82;;;5.60;;
25511;SDS011;13414;44.534;18.700;2023-07-09T08:51:17;8.52;;;6.40;;
25511;SDS011;13414;44.534;18.700;2023-07-09T08:53:58;10.23;;;6.27;;
25511;SDS011;13414;44.534;18.700;2023-07-09T08:56:29;8.85;;;6.57;;
25511;SDS011;13414;44.534;18.700;2023-07-09T08:59:00;9.88;;;6.13;;
25511;SDS011;13414;44.534;18.700;2023-07-09T09:01:31;10.02;;;6.95;;
25511;SDS011;13414;44.534;18.700;2023-07-09T09:04:07;11.63;;;7.18;;
25511;SDS011;13414;44.534;18.700;2023-07-09T09:06:40;9.10;;;6.20;;
25511;SDS011;13414;44.534;18.700;2023-07-09T09:09:12;7.40;;;4.93;;
25511;SDS011;13414;44.534;18.700;2023-07-09T09:11:51;14.82;;;6.55;;
25511;SDS011;13414;44.534;18.700;2023-07-09T09:14:26;10.18;;;5.90;;
25511;SDS011;13414;44.534;18.700;2023-07-09T09:16:56;10.05;;;7.20;;
25511;SDS011;13414;44.534;18.700;2023-07-09T09:19:25;6.05;;;5.10;;
25511;SDS011;13414;44.534;18.700;2023-07-09T09:21:57;7.15;;;6.00;;
25511;SDS011;13414;44.534;18.700;2023-07-09T09:24:30;11.95;;;7.78;;
25511;SDS011;13414;44.534;18.700;2023-07-09T09:27:02;9.25;;;6.88;;
25511;SDS011;13414;44.534;18.700;2023-07-09T09:29:30;9.02;;;7.30;;
25511;SDS011;13414;44.534;18.700;2023-07-09T09:31:58;9.63;;;5.65;;
25511;SDS011;13414;44.534;18.700;2023-07-09T09:34:37;7.93;;;5.72;;
25511;SDS011;13414;44.534;18.700;2023-07-09T09:37:09;9.45;;;5.75;;
25511;SDS011;13414;44.534;18.700;2023-07-09T09:39:37;7.63;;;5.40;;
25511;SDS011;13414;44.534;18.700;2023-07-09T09:42:10;11.93;;;5.90;;
25511;SDS011;13414;44.534;18.700;2023-07-09T09:44:42;6.38;;;5.50;;
25511;SDS011;13414;44.534;18.700;2023-07-09T09:47:10;7.85;;;6.18;;
25511;SDS011;13414;44.534;18.700;2023-07-09T09:49:39;10.30;;;5.90;;
25511;SDS011;13414;44.534;18.700;2023-07-09T09:52:06;8.73;;;5.30;;
25511;SDS011;13414;44.534;18.700;2023-07-09T09:54:40;10.13;;;5.63;;
25511;SDS011;13414;44.534;18.700;2023-07-09T09:57:18;13.38;;;9.95;;
25511;SDS011;13414;44.534;18.700;2023-07-09T09:59:47;9.88;;;5.82;;
25511;SDS011;13414;44.534;18.700;2023-07-09T10:02:16;12.38;;;6.30;;
25511;SDS011;13414;44.534;18.700;2023-07-09T10:04:44;7.13;;;5.38;;
25511;SDS011;13414;44.534;18.700;2023-07-09T10:07:14;10.68;;;5.93;;
25511;SDS011;13414;44.534;18.700;2023-07-09T10:09:51;10.93;;;5.97;;
25511;SDS011;13414;44.534;18.700;2023-07-09T10:12:28;10.93;;;6.97;;
25511;SDS011;13414;44.534;18.700;2023-07-09T10:15:06;10.60;;;6.07;;
25511;SDS011;13414;44.534;18.700;2023-07-09T10:17:42;8.48;;;7.18;;
25511;SDS011;13414;44.534;18.700;2023-07-09T10:20:18;10.88;;;7.45;;
25511;SDS011;13414;44.534;18.700;2023-07-09T10:22:51;12.15;;;9.38;;
25511;SDS011;13414;44.534;18.700;2023-07-09T10:25:29;12.20;;;8.63;;
25511;SDS011;13414;44.534;18.700;2023-07-09T10:28:13;11.95;;;7.60;;
25511;SDS011;13414;44.534;18.700;2023-07-09T10:30:59;10.32;;;7.35;;
25511;SDS011;13414;44.534;18.700;2023-07-09T10:33:36;10.35;;;6.13;;
25511;SDS011;13414;44.534;18.700;2023-07-09T10:36:16;9.35;;;6.68;;
25511;SDS011;13414;44.534;18.700;2023-07-09T10:38:54;8.90;;;7.32;;
25511;SDS011;13414;44.534;18.700;2023-07-09T10:41:26;6.82;;;5.20;;
25511;SDS011;13414;44.534;18.700;2023-07-09T10:43:58;10.27;;;8.07;;
25511;SDS011;13414;44.534;18.700;2023-07-09T10:46:31;8.77;;;6.90;;
25511;SDS011;13414;44.534;18.700;2023-07-09T10:49:02;10.68;;;7.80;;
25511;SDS011;13414;44.534;18.700;2023-07-09T10:51:33;8.75;;;6.90;;
25511;SDS011;13414;44.534;18.700;2023-07-09T10:54:06;9.68;;;6.25;;
25511;SDS011;13414;44.534;18.700;2023-07-09T10:56:42;11.93;;;7.63;;
25511;SDS011;13414;44.534;18.700;2023-07-09T10:59:17;9.85;;;6.60;;
25511;SDS011;13414;44.534;18.700;2023-07-09T11:01:49;10.65;;;6.68;;
25511;SDS011;13414;44.534;18.700;2023-07-09T11:04:25;11.23;;;7.60;;
25511;SDS011;13414;44.534;18.700;2023-07-09T11:06:58;9.98;;;6.50;;
25511;SDS011;13414;44.534;18.700;2023-07-09T11:09:32;12.60;;;7.60;;
25511;SDS011;13414;44.534;18.700;2023-07-09T11:12:02;9.65;;;6.40;;
25511;SDS011;13414;44.534;18.700;2023-07-09T11:14:39;8.70;;;5.68;;
25511;SDS011;13414;44.534;18.700;2023-07-09T11:17:11;9.18;;;5.55;;
25511;SDS011;13414;44.534;18.700;2023-07-09T11:19:42;7.85;;;4.90;;
25511;SDS011;13414;44.534;18.700;2023-07-09T11:22:15;7.97;;;4.65;;
25511;SDS011;13414;44.534;18.700;2023-07-09T11:24:47;5.72;;;4.50;;
25511;SDS011;13414;44.534;18.700;2023-07-09T11:27:18;9.82;;;5.10;;
25511;SDS011;13414;44.534;18.700;2023-07-09T11:29:56;6.40;;;4.95;;
25511;SDS011;13414;44.534;18.700;2023-07-09T11:32:25;15.35;;;5.80;;
25511;SDS011;13414;44.534;18.700;2023-07-09T11:34:53;15.52;;;9.57;;
25511;SDS011;13414;44.534;18.700;2023-07-09T11:37:23;7.75;;;5.68;;
25511;SDS011;13414;44.534;18.700;2023-07-09T11:39:52;8.05;;;5.75;;
25511;SDS011;13414;44.534;18.700;2023-07-09T11:42:23;8.02;;;6.07;;
25511;SDS011;13414;44.534;18.700;2023-07-09T11:44:54;7.38;;;6.07;;
25511;SDS011;13414;44.534;18.700;2023-07-09T11:47:33;7.30;;;5.35;;
25511;SDS011;13414;44.534;18.700;2023-07-09T11:50:05;8.05;;;5.50;;
25511;SDS011;13414;44.534;18.700;2023-07-09T11:52:43;6.78;;;5.30;;
25511;SDS011;13414;44.534;18.700;2023-07-09T11:55:25;6.60;;;4.93;;
25511;SDS011;13414;44.534;18.700;2023-07-09T11:57:54;6.68;;;5.75;;
25511;SDS011;13414;44.534;18.700;2023-07-09T12:00:24;6.00;;;5.20;;
25511;SDS011;13414;44.534;18.700;2023-07-09T12:02:55;11.27;;;5.63;;
25511;SDS011;13414;44.534;18.700;2023-07-09T12:05:25;9.30;;;5.55;;
25511;SDS011;13414;44.534;18.700;2023-07-09T12:07:54;10.07;;;5.53;;
25511;SDS011;13414;44.534;18.700;2023-07-09T12:10:25;8.05;;;5.80;;
25511;SDS011;13414;44.534;18.700;2023-07-09T12:12:55;7.30;;;5.75;;
25511;SDS011;13414;44.534;18.700;2023-07-09T12:15:26;6.70;;;5.57;;
25511;SDS011;13414;44.534;18.700;2023-07-09T12:17:55;8.52;;;6.07;;
25511;SDS011;13414;44.534;18.700;2023-07-09T12:20:24;6.70;;;5.55;;
25511;SDS011;13414;44.534;18.700;2023-07-09T12:22:52;7.97;;;6.07;;
25511;SDS011;13414;44.534;18.700;2023-07-09T12:25:23;8.02;;;6.75;;
25511;SDS011;13414;44.534;18.700;2023-07-09T12:27:52;6.90;;;6.20;;
25511;SDS011;13414;44.534;18.700;2023-07-09T12:30:19;11.50;;;5.53;;
25511;SDS011;13414;44.534;18.700;2023-07-09T12:32:49;5.82;;;5.22;;
25511;SDS011;13414;44.534;18.700;2023-07-09T12:35:18;8.13;;;5.22;;
25511;SDS011;13414;44.534;18.700;2023-07-09T12:37:47;7.03;;;5.18;;
25511;SDS011;13414;44.534;18.700;2023-07-09T12:40:20;7.88;;;5.30;;
25511;SDS011;13414;44.534;18.700;2023-07-09T12:45:22;7.93;;;6.40;;
25511;SDS011;13414;44.534;18.700;2023-07-09T12:47:52;8.27;;;6.25;;
25511;SDS011;13414;44.534;18.700;2023-07-09T12:50:23;9.27;;;7.07;;
25511;SDS011;13414;44.534;18.700;2023-07-09T12:52:56;7.85;;;6.03;;
25511;SDS011;13414;44.534;18.700;2023-07-09T12:55:28;6.20;;;5.40;;
25511;SDS011;13414;44.534;18.700;2023-07-09T12:58:07;6.25;;;5.30;;
25511;SDS011;13414;44.534;18.700;2023-07-09T13:00:36;5.82;;;4.85;;
25511;SDS011;13414;44.534;18.700;2023-07-09T13:03:10;5.53;;;4.93;;
25511;SDS011;13414;44.534;18.700;2023-07-09T13:05:50;6.93;;;5.30;;
25511;SDS011;13414;44.534;18.700;2023-07-09T13:08:19;7.93;;;5.22;;
25511;SDS011;13414;44.534;18.700;2023-07-09T13:10:47;8.10;;;4.78;;
25511;SDS011;13414;44.534;18.700;2023-07-09T13:13:18;7.20;;;5.07;;
25511;SDS011;13414;44.534;18.700;2023-07-09T13:15:48;7.85;;;4.95;;
25511;SDS011;13414;44.534;18.700;2023-07-09T13:18:21;7.82;;;5.78;;
25511;SDS011;13414;44.534;18.700;2023-07-09T13:20:49;9.52;;;5.53;;
25511;SDS011;13414;44.534;18.700;2023-07-09T13:23:19;12.48;;;7.32;;
25511;SDS011;13414;44.534;18.700;2023-07-09T13:25:49;7.97;;;5.78;;
25511;SDS011;13414;44.534;18.700;2023-07-09T13:28:19;6.55;;;5.78;;
25511;SDS011;13414;44.534;18.700;2023-07-09T13:30:49;11.13;;;5.90;;
25511;SDS011;13414;44.534;18.700;2023-07-09T13:33:19;7.05;;;5.70;;
25511;SDS011;13414;44.534;18.700;2023-07-09T13:35:50;7.68;;;6.15;;
25511;SDS011;13414;44.534;18.700;2023-07-09T13:38:20;6.65;;;4.93;;
25511;SDS011;13414;44.534;18.700;2023-07-09T13:40:49;7.80;;;5.22;;
25511;SDS011;13414;44.534;18.700;2023-07-09T13:43:32;6.20;;;4.85;;
25511;SDS011;13414;44.534;18.700;2023-07-09T13:46:01;8.70;;;4.95;;
25511;SDS011;13414;44.534;18.700;2023-07-09T13:48:31;6.53;;;4.57;;
25511;SDS011;13414;44.534;18.700;2023-07-09T13:51:01;8.80;;;4.88;;
25511;SDS011;13414;44.534;18.700;2023-07-09T13:53:33;7.90;;;5.03;;
25511;SDS011;13414;44.534;18.700;2023-07-09T13:56:01;9.23;;;4.95;;
25511;SDS011;13414;44.534;18.700;2023-07-09T13:58:29;6.20;;;5.40;;
25511;SDS011;13414;44.534;18.700;2023-07-09T14:00:56;11.15;;;5.18;;
25511;SDS011;13414;44.534;18.700;2023-07-09T14:03:30;8.63;;;4.45;;
25511;SDS011;13414;44.534;18.700;2023-07-09T14:06:01;5.85;;;4.53;;
25511;SDS011;13414;44.534;18.700;2023-07-09T14:08:29;6.57;;;4.90;;
25511;SDS011;13414;44.534;18.700;2023-07-09T14:10:57;8.00;;;5.35;;
25511;SDS011;13414;44.534;18.700;2023-07-09T14:13:25;6.22;;;4.57;;
25511;SDS011;13414;44.534;18.700;2023-07-09T14:15:52;5.57;;;4.50;;
25511;SDS011;13414;44.534;18.700;2023-07-09T14:18:20;6.38;;;4.97;;
25511;SDS011;13414;44.534;18.700;2023-07-09T14:20:51;7.22;;;4.82;;
25511;SDS011;13414;44.534;18.700;2023-07-09T14:23:20;5.47;;;4.85;;
25511;SDS011;13414;44.534;18.700;2023-07-09T14:25:47;6.13;;;4.43;;
25511;SDS011;13414;44.534;18.700;2023-07-09T14:28:16;7.40;;;5.03;;
25511;SDS011;13414;44.534;18.700;2023-07-09T14:30:44;6.75;;;4.70;;
25511;SDS011;13414;44.534;18.700;2023-07-09T14:33:13;6.13;;;4.90;;
25511;SDS011;13414;44.534;18.700;2023-07-09T14:35:42;6.00;;;4.70;;
25511;SDS011;13414;44.534;18.700;2023-07-09T14:38:15;7.47;;;5.00;;
25511;SDS011;13414;44.534;18.700;2023-07-09T14:40:46;7.95;;;5.03;;
25511;SDS011;13414;44.534;18.700;2023-07-09T14:43:15;7.70;;;5.53;;
25511;SDS011;13414;44.534;18.700;2023-07-09T14:45:43;8.38;;;5.18;;
25511;SDS011;13414;44.534;18.700;2023-07-09T14:48:11;7.65;;;5.13;;